createdAt,value
2018-07-01T00:02:18.780Z,14.50
2018-07-01T00:07:15.339Z,14.40
2018-07-01T00:12:12.093Z,14.30
2018-07-01T00:17:09.040Z,14.20
2018-07-01T00:22:06.226Z,14.10
2018-07-01T00:27:07.208Z,13.90
2018-07-01T00:32:06.509Z,13.80
2018-07-01T00:37:07.128Z,13.80
2018-07-01T00:42:05.850Z,13.80
2018-07-01T00:47:04.428Z,13.70
2018-07-01T00:52:00.594Z,13.60
2018-07-01T00:56:59.350Z,13.40
2018-07-01T01:01:55.066Z,13.40
2018-07-01T01:06:50.781Z,13.50
2018-07-01T01:11:46.652Z,13.40
2018-07-01T01:16:42.622Z,13.30
2018-07-01T01:21:38.854Z,13.20
2018-07-01T01:26:35.207Z,13.10
2018-07-01T01:36:30.795Z,12.80
2018-07-01T01:42:33.556Z,12.80
2018-07-01T01:47:32.677Z,12.70
2018-07-01T01:52:42.295Z,12.60
2018-07-01T01:57:46.249Z,12.60
2018-07-01T02:02:56.263Z,12.60
2018-07-01T02:07:56.253Z,12.50
2018-07-01T02:12:52.699Z,12.40
2018-07-01T02:17:50.002Z,12.30
2018-07-01T02:22:49.834Z,12.20
2018-07-01T02:27:48.604Z,12.10
2018-07-01T02:32:44.820Z,12.00
2018-07-01T02:37:40.552Z,11.90
2018-07-01T02:42:36.816Z,11.80
2018-07-01T02:47:32.461Z,11.70
2018-07-01T02:52:29.097Z,11.60
2018-07-01T02:57:25.017Z,11.50
2018-07-01T03:02:20.364Z,11.50
2018-07-01T03:07:16.966Z,11.40
2018-07-01T03:12:12.514Z,11.40
2018-07-01T03:17:09.284Z,11.40
2018-07-01T03:22:06.363Z,11.30
2018-07-01T03:27:05.161Z,11.30
2018-07-01T03:32:00.817Z,11.00
2018-07-01T03:36:57.796Z,10.90
2018-07-01T03:41:53.200Z,10.80
2018-07-01T03:46:49.885Z,10.90
2018-07-01T03:51:45.526Z,10.90
2018-07-01T03:56:41.475Z,11.10
2018-07-01T04:01:38.377Z,11.50
2018-07-01T04:06:34.269Z,11.90
2018-07-01T04:11:29.981Z,12.30
2018-07-01T04:16:26.799Z,12.60
2018-07-01T04:21:22.227Z,13.40
2018-07-01T04:26:17.813Z,13.60
2018-07-01T04:31:13.299Z,13.80
2018-07-01T04:36:15.797Z,14.20
2018-07-01T04:41:11.292Z,15.90
2018-07-01T04:46:07.669Z,17.10
2018-07-01T04:51:04.581Z,18.20
2018-07-01T04:56:00.171Z,18.50
2018-07-01T05:00:56.347Z,18.60
2018-07-01T05:05:51.777Z,18.00
2018-07-01T05:10:47.301Z,18.50
2018-07-01T05:15:43.342Z,19.60
2018-07-01T05:20:40.509Z,18.40
2018-07-01T05:25:36.332Z,19.20
2018-07-01T05:30:34.502Z,20.20
2018-07-01T05:35:30.033Z,21.10
2018-07-01T05:40:25.630Z,21.40
2018-07-01T05:45:21.221Z,21.60
2018-07-01T05:50:16.709Z,22.10
2018-07-01T06:00:10.688Z,23.30
2018-07-01T06:05:07.842Z,23.60
2018-07-01T06:14:59.797Z,23.20
2018-07-01T06:19:55.325Z,23.80
2018-07-01T06:24:51.265Z,23.80
2018-07-01T06:29:46.956Z,23.50
2018-07-01T06:34:42.266Z,22.80
2018-07-01T06:39:37.825Z,21.70
2018-07-01T06:44:33.321Z,21.10
2018-07-01T06:49:29.016Z,20.60
2018-07-01T06:54:24.332Z,20.70
2018-07-01T06:59:21.772Z,20.90
2018-07-01T07:04:18.128Z,22.20
2018-07-01T07:09:14.237Z,23.00
2018-07-01T07:14:09.617Z,22.90
2018-07-01T07:19:05.680Z,22.50
2018-07-01T07:24:01.199Z,22.40
2018-07-01T07:28:57.480Z,23.10
2018-07-01T07:33:52.926Z,23.90
2018-07-01T07:38:48.484Z,24.00
2018-07-01T07:43:44.889Z,24.90
2018-07-01T07:48:40.756Z,25.30
2018-07-01T07:53:36.262Z,25.30
2018-07-01T07:58:31.975Z,25.90
2018-07-01T08:03:43.525Z,26.00
2018-07-01T08:08:46.949Z,26.00
2018-07-01T08:13:44.505Z,24.90
2018-07-01T08:18:40.014Z,25.40
2018-07-01T08:23:35.536Z,25.40
2018-07-01T08:28:31.943Z,24.10
2018-07-01T08:38:23.590Z,24.50
2018-07-01T08:43:20.260Z,23.10
2018-07-01T08:48:15.939Z,22.10
2018-07-01T08:53:12.155Z,21.80
2018-07-01T08:58:09.071Z,24.80
2018-07-01T09:03:05.864Z,25.30
2018-07-01T09:08:03.387Z,25.80
2018-07-01T09:12:59.286Z,25.70
2018-07-01T09:17:55.695Z,25.50
2018-07-01T09:22:51.168Z,26.40
2018-07-01T09:27:46.605Z,26.10
2018-07-01T09:32:42.392Z,25.20
2018-07-01T09:37:37.997Z,25.40
2018-07-01T09:42:33.844Z,25.50
2018-07-01T09:47:30.296Z,25.80
2018-07-01T09:52:25.829Z,26.20
2018-07-01T10:02:17.389Z,26.80
2018-07-01T10:07:13.572Z,26.40
2018-07-01T10:12:09.207Z,26.70
2018-07-01T10:17:08.101Z,25.00
2018-07-01T10:22:06.632Z,22.90
2018-07-01T10:27:05.051Z,23.40
2018-07-01T10:36:55.232Z,24.70
2018-07-01T10:41:51.470Z,23.10
2018-07-01T10:46:47.953Z,23.30
2018-07-01T10:51:43.457Z,24.60
2018-07-01T10:56:39.131Z,23.90
2018-07-01T11:01:34.526Z,22.90
2018-07-01T11:06:30.991Z,23.40
2018-07-01T11:11:29.893Z,22.80
2018-07-01T11:16:25.551Z,22.90
2018-07-01T11:21:22.156Z,22.60
2018-07-01T11:26:18.952Z,23.10
2018-07-01T11:31:15.818Z,22.90
2018-07-01T11:36:12.443Z,22.20
2018-07-01T11:41:09.581Z,21.90
2018-07-01T11:46:06.446Z,21.70
2018-07-01T11:51:02.545Z,22.30
2018-07-01T12:00:52.986Z,22.80
2018-07-01T12:05:49.252Z,22.70
2018-07-01T12:10:44.798Z,22.60
2018-07-01T12:15:40.259Z,22.70
2018-07-01T12:20:37.266Z,23.20
2018-07-01T12:25:34.380Z,23.10
2018-07-01T12:30:30.291Z,22.40
2018-07-01T12:35:25.713Z,22.20
2018-07-01T12:40:21.394Z,22.20
2018-07-01T12:45:16.727Z,22.40
2018-07-01T12:50:12.724Z,23.30
2018-07-01T12:55:11.452Z,23.90
2018-07-01T13:00:09.178Z,23.60
2018-07-01T13:05:06.238Z,23.50
2018-07-01T13:10:02.730Z,23.40
2018-07-01T13:15:00.742Z,22.60
2018-07-01T13:19:57.565Z,22.90
2018-07-01T13:24:53.527Z,23.00
2018-07-01T13:29:50.183Z,22.60
2018-07-01T13:34:45.680Z,22.50
2018-07-01T13:39:41.274Z,22.20
2018-07-01T13:44:36.475Z,22.60
2018-07-01T13:49:32.128Z,22.60
2018-07-01T13:54:28.127Z,22.20
2018-07-01T13:59:24.621Z,22.10
2018-07-01T14:04:22.920Z,22.10
2018-07-01T14:09:18.422Z,22.50
2018-07-01T14:14:13.890Z,22.50
2018-07-01T14:19:09.465Z,22.70
2018-07-01T14:24:06.232Z,23.00
2018-07-01T14:33:58.660Z,22.10
2018-07-01T14:38:57.600Z,22.20
2018-07-01T14:43:53.357Z,22.20
2018-07-01T14:48:49.553Z,22.30
2018-07-01T14:53:45.696Z,22.00
2018-07-01T14:58:41.483Z,22.00
2018-07-01T15:03:37.152Z,22.00
2018-07-01T15:08:33.452Z,22.40
2018-07-01T15:18:23.915Z,22.60
2018-07-01T15:23:22.067Z,22.40
2018-07-01T15:28:17.450Z,22.10
2018-07-01T15:38:23.324Z,21.80
2018-07-01T15:48:21.265Z,22.00
2018-07-01T15:58:12.128Z,22.10
2018-07-01T16:03:08.042Z,21.90
2018-07-01T16:08:04.356Z,21.70
2018-07-01T16:13:00.015Z,21.70
2018-07-01T16:22:51.299Z,21.40
2018-07-01T16:27:51.705Z,21.30
2018-07-01T16:32:48.182Z,21.10
2018-07-01T16:37:43.997Z,21.20
2018-07-01T16:42:39.397Z,21.20
2018-07-01T16:47:35.618Z,21.30
2018-07-01T16:52:31.298Z,21.20
2018-07-01T16:57:28.025Z,21.10
2018-07-01T17:02:48.557Z,21.00
2018-07-01T17:07:44.919Z,21.00
2018-07-01T17:12:41.459Z,21.00
2018-07-01T17:17:37.041Z,21.00
2018-07-01T17:22:33.604Z,20.90
2018-07-01T17:32:29.093Z,20.80
2018-07-01T17:37:24.674Z,20.60
2018-07-01T17:42:21.931Z,20.30
2018-07-01T17:47:18.552Z,20.20
2018-07-01T17:52:15.174Z,20.10
2018-07-01T17:57:10.555Z,20.10
2018-07-01T18:02:07.208Z,20.10
2018-07-01T18:07:05.398Z,20.20
2018-07-01T18:12:02.392Z,20.20
2018-07-01T18:16:58.885Z,20.20
2018-07-01T18:22:21.721Z,20.20
2018-07-01T18:26:51.449Z,20.10
2018-07-01T18:31:47.777Z,20.00
2018-07-01T18:41:38.777Z,19.80
2018-07-01T18:46:34.297Z,19.70
2018-07-01T18:51:30.218Z,19.50
2018-07-01T18:56:27.183Z,19.50
2018-07-01T19:06:17.616Z,19.30
2018-07-01T19:11:13.422Z,19.10
2018-07-01T19:16:10.824Z,18.90
2018-07-01T19:21:08.714Z,18.80
2018-07-01T19:26:05.521Z,18.70
2018-07-01T19:31:01.565Z,18.50
2018-07-01T19:35:57.573Z,18.40
2018-07-01T19:40:52.953Z,18.20
2018-07-01T19:45:48.394Z,18.10
2018-07-01T19:50:44.424Z,18.00
2018-07-01T20:00:35.252Z,17.60
2018-07-01T20:05:30.735Z,17.50
2018-07-01T20:10:27.545Z,17.50
2018-07-01T20:15:23.577Z,17.40
2018-07-01T20:20:19.177Z,17.30
2018-07-01T20:25:14.815Z,17.20
2018-07-01T20:30:10.968Z,17.20
2018-07-01T20:35:08.689Z,17.10
2018-07-01T20:40:05.240Z,17.10
2018-07-01T20:45:00.670Z,17.00
2018-07-01T20:54:52.856Z,16.90
2018-07-01T20:59:48.264Z,16.90
2018-07-01T21:04:44.503Z,16.80
2018-07-01T21:09:40.127Z,16.70
2018-07-01T21:14:35.581Z,16.60
2018-07-01T21:19:31.302Z,16.50
2018-07-01T21:24:28.872Z,16.40
2018-07-01T21:29:24.336Z,16.30
2018-07-01T21:34:20.441Z,16.10
2018-07-01T21:39:16.753Z,15.70
2018-07-01T21:49:08.513Z,15.00
2018-07-01T21:54:05.337Z,14.80
2018-07-01T21:59:01.714Z,14.80
2018-07-01T22:14:57.894Z,14.40
2018-07-01T22:19:53.298Z,14.30
2018-07-01T22:24:49.048Z,14.30
2018-07-01T22:29:44.565Z,14.40
2018-07-01T22:34:40.085Z,14.20
2018-07-01T22:39:35.985Z,14.00
2018-07-01T22:44:31.906Z,13.80
2018-07-01T22:49:27.563Z,13.90
2018-07-01T22:54:23.084Z,13.80
2018-07-01T22:59:18.397Z,13.80
2018-07-01T23:04:14.147Z,13.60
2018-07-01T23:09:10.089Z,13.60
2018-07-01T23:14:06.363Z,13.60
2018-07-01T23:19:03.222Z,13.50
2018-07-01T23:23:59.097Z,13.40
2018-07-01T23:28:54.653Z,13.30
2018-07-01T23:33:50.156Z,13.20
2018-07-01T23:38:46.792Z,13.10
2018-07-01T23:43:42.580Z,13.00
2018-07-01T23:48:38.066Z,12.90
2018-07-01T23:53:34.193Z,12.80
2018-07-01T23:58:30.004Z,12.70
